Time;durP1;ratioP1;P1;durP2;ratioP2;P2;SDS_P1;SDS_P2;PMS_P1;PMS_P2;Temp;Humidity;BMP_temperature;BMP_pressure;BME280_temperature;BME280_humidity;BME280_pressure;Samples;Min_cycle;Max_cycle;Signal;HPM_P1;HPM_P2
2024/01/24 00:00:56;;;;;;;5.18;2.40;;;12.90;99.90;;;;;;5101683;28;20024;-37
2024/01/24 00:03:22;;;;;;;4.63;2.35;;;12.90;99.90;;;;;;5100288;28;20038;-35
2024/01/24 00:05:48;;;;;;;3.75;2.20;;;12.90;99.90;;;;;;5101148;28;20058;-35
2024/01/24 00:08:13;;;;;;;3.25;1.88;;;13.00;99.90;;;;;;5101178;28;20130;-36
2024/01/24 00:10:39;;;;;;;4.28;2.20;;;13.00;99.90;;;;;;5100347;28;20115;-33
2024/01/24 00:13:04;;;;;;;3.53;1.80;;;13.00;99.90;;;;;;5100955;28;20082;-37
2024/01/24 00:15:30;;;;;;;2.15;1.77;;;13.00;99.90;;;;;;5101146;28;20383;-38
2024/01/24 00:17:55;;;;;;;2.65;1.92;;;13.00;99.90;;;;;;5099963;28;20465;-35
2024/01/24 00:20:21;;;;;;;3.17;2.17;;;13.00;99.90;;;;;;5100729;28;20125;-35
2024/01/24 00:22:50;;;;;;;3.60;1.80;;;13.10;99.90;;;;;;5100374;28;20080;-33
2024/01/24 00:25:15;;;;;;;3.58;1.58;;;13.10;99.90;;;;;;5100943;28;20027;-36
2024/01/24 00:27:41;;;;;;;2.70;1.60;;;13.10;99.90;;;;;;5101190;28;20458;-38
2024/01/24 00:30:10;;;;;;;3.75;1.70;;;13.10;99.90;;;;;;5100584;28;20011;-34
2024/01/24 00:32:35;;;;;;;2.58;1.50;;;13.10;99.90;;;;;;5100245;28;20039;-36
2024/01/24 00:35:01;;;;;;;2.90;1.40;;;13.10;99.90;;;;;;5100854;28;20031;-36
2024/01/24 00:37:26;;;;;;;2.05;1.20;;;13.20;99.90;;;;;;5099941;28;20072;-36
2024/01/24 00:39:52;;;;;;;2.97;1.30;;;13.20;99.90;;;;;;5100758;28;20073;-36
2024/01/24 00:42:17;;;;;;;2.35;1.40;;;13.20;99.90;;;;;;5100458;28;20039;-37
2024/01/24 00:44:44;;;;;;;2.17;1.20;;;13.20;99.90;;;;;;5100181;28;20023;-35
2024/01/24 00:47:09;;;;;;;3.20;1.20;;;13.30;99.90;;;;;;5099905;28;20891;-38
2024/01/24 00:49:35;;;;;;;2.33;0.95;;;13.30;99.90;;;;;;5100461;28;20019;-36
2024/01/24 00:52:00;;;;;;;1.13;0.95;;;13.30;99.90;;;;;;5099764;28;20126;-36
2024/01/24 00:54:26;;;;;;;2.05;1.10;;;13.30;99.90;;;;;;5100848;28;20027;-37
2024/01/24 00:56:51;;;;;;;2.53;1.20;;;13.30;99.90;;;;;;5099923;28;20028;-37
2024/01/24 00:59:17;;;;;;;2.05;1.30;;;13.30;99.90;;;;;;5099779;28;20058;-36
2024/01/24 01:01:43;;;;;;;3.00;1.20;;;13.30;99.90;;;;;;5099806;28;20031;-36
2024/01/24 01:04:09;;;;;;;2.88;1.40;;;13.20;99.90;;;;;;5100212;28;20894;-33
2024/01/24 01:06:34;;;;;;;2.05;1.33;;;13.20;99.90;;;;;;5099310;28;20047;-38
2024/01/24 01:09:00;;;;;;;2.63;1.30;;;13.20;99.90;;;;;;5099639;28;20024;-37
2024/01/24 01:11:26;;;;;;;1.48;1.10;;;13.20;99.90;;;;;;5099824;28;20015;-37
2024/01/24 01:13:51;;;;;;;1.35;1.00;;;13.20;99.90;;;;;;5098828;28;20100;-34
2024/01/24 01:16:17;;;;;;;1.38;1.17;;;13.20;99.90;;;;;;5098975;28;20035;-37
2024/01/24 01:18:43;;;;;;;1.38;1.00;;;13.20;99.90;;;;;;5099670;28;20023;-35
2024/01/24 01:21:08;;;;;;;2.17;0.98;;;13.20;99.90;;;;;;5099128;28;20031;-35
2024/01/24 01:23:34;;;;;;;0.93;0.90;;;13.20;99.90;;;;;;5098778;28;20402;-34
2024/01/24 01:25:59;;;;;;;2.75;1.00;;;13.10;99.90;;;;;;5099070;28;20047;-35
2024/01/24 01:28:25;;;;;;;0.95;0.90;;;13.10;99.90;;;;;;5098779;28;20131;-36
2024/01/24 01:30:51;;;;;;;1.20;0.90;;;13.00;99.90;;;;;;5098823;28;20027;-38
2024/01/24 01:33:16;;;;;;;1.17;0.88;;;13.00;99.90;;;;;;5098507;28;20031;-34
2024/01/24 01:35:42;;;;;;;1.40;0.73;;;12.90;99.90;;;;;;5099713;28;20027;-34
2024/01/24 01:38:07;;;;;;;1.75;1.05;;;12.90;99.90;;;;;;5099041;28;20035;-36
2024/01/24 01:40:33;;;;;;;1.00;0.90;;;12.80;99.90;;;;;;5098702;28;20023;-33
2024/01/24 01:42:58;;;;;;;1.20;1.10;;;12.80;99.90;;;;;;5099088;28;20092;-33
2024/01/24 01:45:24;;;;;;;1.25;1.05;;;12.80;99.90;;;;;;5098915;28;20157;-37
2024/01/24 01:47:51;;;;;;;1.23;1.10;;;12.80;99.90;;;;;;5099534;28;20024;-37
2024/01/24 01:50:17;;;;;;;1.35;0.90;;;12.70;99.90;;;;;;5100489;28;20174;-34
2024/01/24 01:52:43;;;;;;;1.20;1.10;;;12.70;99.90;;;;;;5099727;28;20027;-35
2024/01/24 01:55:11;;;;;;;1.27;1.13;;;12.70;99.90;;;;;;5098829;28;20023;-37
2024/01/24 01:57:39;;;;;;;1.50;1.10;;;12.70;99.90;;;;;;5099982;28;20105;-38
2024/01/24 02:00:07;;;;;;;1.40;1.30;;;12.70;99.90;;;;;;5099029;28;20532;-40
2024/01/24 02:02:34;;;;;;;1.00;1.00;;;12.60;99.90;;;;;;5098885;28;20038;-37
2024/01/24 02:04:59;;;;;;;1.10;1.00;;;12.60;99.90;;;;;;5099098;28;20019;-36
2024/01/24 02:07:25;;;;;;;1.02;1.00;;;12.60;99.90;;;;;;5098490;28;20028;-38
2024/01/24 02:09:50;;;;;;;1.13;1.00;;;12.60;99.90;;;;;;5098148;28;20031;-38
2024/01/24 02:12:16;;;;;;;1.17;1.08;;;12.60;99.90;;;;;;5098527;28;20515;-38
2024/01/24 02:14:41;;;;;;;0.90;0.90;;;12.60;99.90;;;;;;5099563;28;20108;-35
2024/01/24 02:17:07;;;;;;;1.65;1.20;;;12.60;99.90;;;;;;5098490;28;20031;-35
2024/01/24 02:19:33;;;;;;;1.35;1.10;;;12.60;99.90;;;;;;5098559;28;20035;-35
2024/01/24 02:21:58;;;;;;;1.05;1.00;;;12.60;99.90;;;;;;5098918;28;20784;-35
2024/01/24 02:24:24;;;;;;;1.15;1.00;;;12.60;99.90;;;;;;5097799;28;20059;-37
2024/01/24 02:26:50;;;;;;;0.90;0.90;;;12.60;99.90;;;;;;5098612;28;20023;-38
2024/01/24 02:29:16;;;;;;;1.00;1.00;;;12.60;99.90;;;;;;5098445;28;20038;-34
2024/01/24 02:31:41;;;;;;;0.80;0.80;;;12.60;99.90;;;;;;5098363;28;20445;-36
2024/01/24 02:34:07;;;;;;;1.05;0.88;;;12.60;99.90;;;;;;5098554;28;20126;-37
2024/01/24 02:36:33;;;;;;;0.90;0.90;;;12.60;99.90;;;;;;5097105;28;20691;-37
2024/01/24 02:38:58;;;;;;;0.75;0.75;;;12.60;99.90;;;;;;5098425;28;20019;-38
2024/01/24 02:41:24;;;;;;;0.90;0.90;;;12.60;99.90;;;;;;5097746;28;20036;-33
2024/01/24 02:43:52;;;;;;;0.80;0.80;;;12.60;99.90;;;;;;5097505;28;20547;-36
2024/01/24 02:46:18;;;;;;;0.80;0.80;;;12.70;99.90;;;;;;5100866;28;20015;-37
2024/01/24 02:48:43;;;;;;;1.73;0.90;;;12.70;99.90;;;;;;5103351;28;20738;-35
2024/01/24 02:51:09;;;;;;;0.75;0.75;;;12.70;99.90;;;;;;5101864;28;20130;-37
2024/01/24 02:53:34;;;;;;;0.88;0.88;;;12.70;99.90;;;;;;5102425;28;20042;-35
2024/01/24 02:56:00;;;;;;;1.02;0.80;;;12.80;99.90;;;;;;5102482;28;20027;-38
2024/01/24 02:58:25;;;;;;;1.23;0.88;;;12.80;99.90;;;;;;5101577;28;20081;-37
2024/01/24 03:00:51;;;;;;;1.15;1.00;;;12.80;99.90;;;;;;5101933;28;20740;-36
2024/01/24 03:03:16;;;;;;;0.90;0.90;;;12.80;99.90;;;;;;5102471;28;20762;-36
2024/01/24 03:05:43;;;;;;;1.50;0.93;;;12.80;99.90;;;;;;5101337;28;20437;-35
2024/01/24 03:08:08;;;;;;;1.90;1.40;;;12.80;99.90;;;;;;5102036;28;20035;-36
2024/01/24 03:10:34;;;;;;;1.40;1.00;;;12.90;99.90;;;;;;5102109;28;20277;-38
2024/01/24 03:12:59;;;;;;;1.38;1.10;;;12.90;99.90;;;;;;5101250;28;20054;-36
2024/01/24 03:15:26;;;;;;;1.52;1.10;;;12.90;99.90;;;;;;5101797;28;20130;-37
2024/01/24 03:17:51;;;;;;;2.08;1.15;;;12.90;99.90;;;;;;5102187;28;20029;-36
2024/01/24 03:20:17;;;;;;;2.78;1.13;;;12.90;99.90;;;;;;5101191;28;20046;-35
2024/01/24 03:22:46;;;;;;;2.53;1.65;;;12.90;99.90;;;;;;5101595;28;20036;-37
2024/01/24 03:25:15;;;;;;;2.20;1.40;;;12.90;99.90;;;;;;5102139;28;20023;-38
2024/01/24 03:27:40;;;;;;;1.00;1.00;;;12.90;99.90;;;;;;5101374;28;20108;-38
2024/01/24 03:30:06;;;;;;;3.22;1.33;;;13.00;99.90;;;;;;5101842;28;20019;-36
2024/01/24 03:32:32;;;;;;;2.78;1.50;;;12.90;99.90;;;;;;5101586;28;20024;-38
2024/01/24 03:35:01;;;;;;;2.90;1.30;;;12.90;99.90;;;;;;5100994;28;20030;-37
2024/01/24 03:37:26;;;;;;;2.40;1.10;;;12.90;99.90;;;;;;5101184;28;20478;-35
2024/01/24 03:39:55;;;;;;;3.55;0.93;;;12.90;99.90;;;;;;5100696;28;20027;-38
2024/01/24 03:42:21;;;;;;;3.60;1.10;;;12.90;99.90;;;;;;5100931;28;20051;-37
2024/01/24 03:44:46;;;;;;;5.35;1.92;;;12.90;99.90;;;;;;5102607;28;20024;-38
2024/01/24 03:47:12;;;;;;;5.90;1.20;;;12.90;99.90;;;;;;5100727;28;20028;-34
2024/01/24 03:49:37;;;;;;;5.57;1.55;;;12.90;99.90;;;;;;5101183;28;20035;-36
2024/01/24 03:52:03;;;;;;;4.28;1.45;;;12.90;99.90;;;;;;5101221;28;20051;-34
2024/01/24 03:54:29;;;;;;;4.70;1.30;;;12.90;99.90;;;;;;5100596;28;20505;-34
2024/01/24 03:56:54;;;;;;;4.88;1.38;;;12.90;99.90;;;;;;5101003;28;20019;-37
2024/01/24 03:59:20;;;;;;;8.65;1.58;;;12.90;99.90;;;;;;5101353;28;20027;-37
2024/01/24 04:01:46;;;;;;;5.07;1.50;;;12.90;99.90;;;;;;5100432;28;20260;-36
2024/01/24 04:04:12;;;;;;;7.97;1.75;;;12.90;99.90;;;;;;5096264;28;20039;-36
2024/01/24 04:06:37;;;;;;;7.43;1.60;;;12.90;99.90;;;;;;5101399;28;20630;-34
2024/01/24 04:09:06;;;;;;;10.40;1.83;;;12.90;99.90;;;;;;5100530;28;20439;-38
2024/01/24 04:11:31;;;;;;;6.63;2.13;;;12.90;99.90;;;;;;5100725;28;20019;-36
2024/01/24 04:13:57;;;;;;;7.95;1.77;;;12.90;99.90;;;;;;5100413;28;20043;-34
2024/01/24 04:16:23;;;;;;;10.68;2.33;;;12.80;99.90;;;;;;5100473;28;20036;-36
2024/01/24 04:18:52;;;;;;;8.38;2.08;;;12.80;99.90;;;;;;5100951;28;20026;-38
2024/01/24 04:21:17;;;;;;;12.25;2.78;;;12.80;99.90;;;;;;5100553;28;20850;-36
2024/01/24 04:23:43;;;;;;;9.88;2.80;;;12.70;99.90;;;;;;5099412;28;20027;-34
2024/01/24 04:26:09;;;;;;;9.98;2.38;;;12.70;99.90;;;;;;5100577;28;20042;-37
2024/01/24 04:28:35;;;;;;;11.18;2.08;;;12.60;99.90;;;;;;5100491;28;20024;-36
2024/01/24 04:31:01;;;;;;;16.58;3.10;;;12.60;99.90;;;;;;5100806;28;20027;-37
2024/01/24 04:33:26;;;;;;;10.15;2.75;;;12.50;99.90;;;;;;5100828;28;20016;-34
2024/01/24 04:35:55;;;;;;;10.48;2.85;;;12.50;99.90;;;;;;5100801;28;20028;-35
2024/01/24 04:38:21;;;;;;;13.65;3.17;;;12.50;99.90;;;;;;5099369;28;20502;-37
2024/01/24 04:40:46;;;;;;;16.00;3.97;;;12.50;99.90;;;;;;5100532;28;20027;-38
2024/01/24 04:43:12;;;;;;;14.90;3.30;;;12.50;99.90;;;;;;5099359;28;20058;-36
2024/01/24 04:45:37;;;;;;;12.32;3.05;;;12.40;99.90;;;;;;5096250;28;20557;-39
2024/01/24 04:48:03;;;;;;;15.40;3.92;;;12.40;99.90;;;;;;5100434;28;20049;-37
2024/01/24 04:50:29;;;;;;;17.20;3.45;;;12.50;99.90;;;;;;5098810;28;20451;-37
2024/01/24 04:52:54;;;;;;;16.13;4.28;;;12.50;99.90;;;;;;5100481;28;20024;-35
2024/01/24 04:55:20;;;;;;;18.15;4.13;;;12.50;99.90;;;;;;5099543;28;20027;-35
2024/01/24 04:57:45;;;;;;;18.50;4.82;;;12.40;99.90;;;;;;5099358;28;20035;-36
2024/01/24 05:00:12;;;;;;;18.20;4.75;;;12.40;99.90;;;;;;5099650;28;20020;-36
2024/01/24 05:02:37;;;;;;;15.75;3.60;;;12.40;99.90;;;;;;5099719;28;20040;-34
2024/01/24 05:05:06;;;;;;;18.83;4.18;;;12.40;99.90;;;;;;5099872;28;20035;-35
2024/01/24 05:07:35;;;;;;;20.88;4.20;;;12.40;99.90;;;;;;5099955;28;20114;-36
2024/01/24 05:10:04;;;;;;;18.00;4.20;;;12.40;99.90;;;;;;5099597;28;20381;-36
2024/01/24 05:12:30;;;;;;;18.55;4.35;;;12.40;99.90;;;;;;5099564;28;20054;-36
2024/01/24 05:14:56;;;;;;;15.30;4.00;;;12.40;99.90;;;;;;5100434;28;20027;-38
2024/01/24 05:17:22;;;;;;;23.50;5.03;;;12.40;99.90;;;;;;5100204;28;20023;-35
2024/01/24 05:19:48;;;;;;;18.58;4.13;;;12.40;99.90;;;;;;5099613;28;20015;-35
2024/01/24 05:22:13;;;;;;;18.85;4.65;;;12.40;99.90;;;;;;5098822;28;20039;-34
2024/01/24 05:24:43;;;;;;;22.27;4.10;;;12.40;99.90;;;;;;5099798;28;20491;-33
2024/01/24 05:27:09;;;;;;;19.55;4.50;;;12.30;99.90;;;;;;5099432;28;20027;-33
2024/01/24 05:29:34;;;;;;;21.23;5.43;;;12.30;99.90;;;;;;5099784;28;20058;-36
2024/01/24 05:32:00;;;;;;;18.92;4.50;;;12.30;99.90;;;;;;5099313;28;20039;-37
2024/01/24 05:34:26;;;;;;;24.92;5.38;;;12.30;99.90;;;;;;5099555;28;20020;-35
2024/01/24 05:36:53;;;;;;;19.02;4.78;;;12.30;99.90;;;;;;5099394;28;20035;-35
2024/01/24 05:39:19;;;;;;;17.60;4.20;;;12.30;99.90;;;;;;5099856;28;20028;-32
2024/01/24 05:41:45;;;;;;;19.65;4.40;;;12.30;99.90;;;;;;5100203;28;20023;-36
2024/01/24 05:44:10;;;;;;;23.63;4.70;;;12.20;99.90;;;;;;5099824;28;20256;-34
2024/01/24 05:46:36;;;;;;;21.13;5.10;;;12.20;99.90;;;;;;5099413;28;20027;-37
2024/01/24 05:49:02;;;;;;;20.75;4.63;;;12.20;99.90;;;;;;5099803;28;20364;-37
2024/01/24 05:51:27;;;;;;;22.02;4.45;;;12.20;99.90;;;;;;5099382;28;20050;-33
2024/01/24 05:53:53;;;;;;;20.23;4.38;;;12.20;99.90;;;;;;5099375;28;20833;-38
2024/01/24 05:56:19;;;;;;;21.58;5.18;;;12.20;99.90;;;;;;5099422;28;20032;-38
2024/01/24 05:58:45;;;;;;;24.75;6.28;;;12.20;99.90;;;;;;5099689;28;20038;-37
2024/01/24 06:01:10;;;;;;;19.95;5.28;;;12.20;99.90;;;;;;5098236;28;20019;-38
2024/01/24 06:03:36;;;;;;;25.20;4.93;;;12.20;99.90;;;;;;5099944;28;20035;-35
2024/01/24 06:06:02;;;;;;;24.65;5.15;;;12.20;99.90;;;;;;5100703;28;20051;-36
2024/01/24 06:08:29;;;;;;;22.23;4.72;;;12.20;99.90;;;;;;5098939;28;20028;-37
2024/01/24 06:11:05;;;;;;;20.40;5.20;;;12.20;99.90;;;;;;5099820;28;20024;-38
2024/01/24 06:13:31;;;;;;;23.30;4.88;;;12.20;99.90;;;;;;5097637;28;20063;-37
2024/01/24 06:15:57;;;;;;;21.52;5.47;;;12.20;99.90;;;;;;5097702;28;20060;-35
2024/01/24 06:18:23;;;;;;;21.58;5.32;;;12.20;99.90;;;;;;5097903;28;20038;-36
2024/01/24 06:20:48;;;;;;;27.38;5.68;;;12.20;99.90;;;;;;5102050;28;20055;-37
2024/01/24 06:23:14;;;;;;;21.80;5.20;;;12.20;99.90;;;;;;5101996;28;20642;-37
2024/01/24 06:25:40;;;;;;;20.65;4.50;;;12.20;99.90;;;;;;5101926;28;20024;-39
2024/01/24 06:28:06;;;;;;;19.90;4.40;;;12.10;99.90;;;;;;5102736;28;20060;-37
2024/01/24 06:30:31;;;;;;;24.83;5.72;;;12.10;99.90;;;;;;5102619;28;20023;-36
2024/01/24 06:32:57;;;;;;;29.35;6.03;;;12.10;99.90;;;;;;5102598;28;20039;-39
2024/01/24 06:35:23;;;;;;;31.20;6.35;;;12.10;99.90;;;;;;5103100;28;20024;-36
2024/01/24 06:37:51;;;;;;;26.58;6.18;;;12.00;99.90;;;;;;5102119;28;20695;-38
2024/01/24 06:40:19;;;;;;;28.33;6.13;;;12.00;99.90;;;;;;5103411;28;20028;-38
2024/01/24 06:42:45;;;;;;;31.30;6.57;;;11.90;99.90;;;;;;5102783;28;20367;-38
2024/01/24 06:45:11;;;;;;;32.80;6.85;;;11.90;99.90;;;;;;5103041;28;20080;-37
2024/01/24 06:47:37;;;;;;;23.92;6.22;;;11.80;99.90;;;;;;5102635;28;20902;-32
2024/01/24 06:50:03;;;;;;;26.08;6.63;;;11.80;99.90;;;;;;5101438;28;20031;-39
2024/01/24 06:52:30;;;;;;;32.33;6.63;;;11.70;99.90;;;;;;5102985;28;20497;-37
2024/01/24 06:54:56;;;;;;;28.83;6.20;;;11.70;99.90;;;;;;5102597;28;20047;-36
2024/01/24 06:57:22;;;;;;;25.42;6.70;;;11.60;99.90;;;;;;5102705;28;20157;-38
2024/01/24 06:59:47;;;;;;;34.35;6.72;;;11.50;99.90;;;;;;5101963;28;20028;-40
2024/01/24 07:02:13;;;;;;;28.63;5.50;;;11.50;99.90;;;;;;5102371;28;20038;-35
2024/01/24 07:04:39;;;;;;;28.13;5.78;;;11.50;99.90;;;;;;5102381;28;20027;-35
2024/01/24 07:07:04;;;;;;;22.13;5.75;;;11.40;99.90;;;;;;5102439;28;20031;-37
2024/01/24 07:09:30;;;;;;;28.20;6.28;;;11.40;99.90;;;;;;5102266;28;20061;-36
2024/01/24 07:11:56;;;;;;;31.15;7.63;;;11.40;99.90;;;;;;5101241;28;20728;-35
2024/01/24 07:14:21;;;;;;;35.80;7.40;;;11.30;99.90;;;;;;5102248;28;20441;-37
2024/01/24 07:16:48;;;;;;;28.10;5.68;;;11.30;99.90;;;;;;5101863;28;20031;-38
2024/01/24 07:19:14;;;;;;;36.33;7.88;;;11.30;99.90;;;;;;5100915;28;20020;-35
2024/01/24 07:21:40;;;;;;;25.98;6.10;;;11.20;99.90;;;;;;5101945;28;20058;-37
2024/01/24 07:24:05;;;;;;;27.92;6.78;;;11.20;99.90;;;;;;5101878;28;20097;-36
2024/01/24 07:26:32;;;;;;;24.88;5.65;;;11.10;99.90;;;;;;5097798;28;20488;-35
2024/01/24 07:29:00;;;;;;;24.13;5.97;;;11.10;99.90;;;;;;5101711;28;20027;-37
2024/01/24 07:31:25;;;;;;;32.75;6.68;;;11.10;99.90;;;;;;5101851;28;20111;-39
2024/01/24 07:33:51;;;;;;;26.42;5.78;;;11.10;99.90;;;;;;5101020;28;20060;-33
2024/01/24 07:36:17;;;;;;;31.02;6.35;;;11.00;99.90;;;;;;5101573;28;20057;-35
2024/01/24 07:38:43;;;;;;;26.85;5.43;;;11.00;99.90;;;;;;5102410;28;20019;-35
2024/01/24 07:41:08;;;;;;;38.50;7.47;;;11.00;99.90;;;;;;5100695;28;20934;-36
2024/01/24 07:43:34;;;;;;;28.42;6.07;;;11.00;99.90;;;;;;5101292;28;20502;-36
2024/01/24 07:46:01;;;;;;;26.75;6.13;;;10.90;99.90;;;;;;5100836;28;20038;-35
2024/01/24 07:48:27;;;;;;;34.38;6.70;;;10.90;99.90;;;;;;5101484;28;20112;-35
2024/01/24 07:50:52;;;;;;;25.65;7.38;;;11.00;99.90;;;;;;5102040;28;20038;-36
2024/01/24 07:53:18;;;;;;;26.60;5.60;;;10.90;99.90;;;;;;5101860;28;20030;-37
2024/01/24 07:55:43;;;;;;;26.70;6.13;;;11.00;99.90;;;;;;5101883;28;20022;-33
2024/01/24 07:58:09;;;;;;;28.00;6.18;;;10.90;99.90;;;;;;5101611;28;20031;-35
2024/01/24 08:00:34;;;;;;;29.00;6.32;;;10.90;99.90;;;;;;5101155;28;20030;-34
2024/01/24 08:03:00;;;;;;;26.75;6.25;;;10.80;99.90;;;;;;5101180;28;20036;-34
2024/01/24 08:05:29;;;;;;;29.10;7.45;;;10.80;99.90;;;;;;5101189;28;20065;-33
2024/01/24 08:07:56;;;;;;;31.45;7.00;;;10.80;99.90;;;;;;5100896;28;20892;-36
2024/01/24 08:10:21;;;;;;;23.65;6.47;;;10.80;99.90;;;;;;5101461;28;20039;-34
2024/01/24 08:12:47;;;;;;;28.10;6.47;;;10.80;99.90;;;;;;5101397;28;20052;-36
2024/01/24 08:15:13;;;;;;;29.88;6.70;;;10.80;99.90;;;;;;5100355;28;20024;-37
2024/01/24 08:17:38;;;;;;;36.83;7.00;;;10.80;99.90;;;;;;5101007;28;20119;-37
2024/01/24 08:20:04;;;;;;;26.88;6.07;;;10.80;99.90;;;;;;5101384;28;20030;-36
2024/01/24 08:22:30;;;;;;;29.30;6.47;;;10.80;99.90;;;;;;5100860;28;20074;-36
2024/01/24 08:24:57;;;;;;;28.73;6.50;;;10.80;99.90;;;;;;5101245;28;20371;-34
2024/01/24 08:27:23;;;;;;;29.55;7.00;;;10.80;99.90;;;;;;5098735;28;20114;-34
2024/01/24 08:29:48;;;;;;;31.63;6.45;;;10.80;99.90;;;;;;5100426;28;20032;-36
2024/01/24 08:32:14;;;;;;;22.65;6.13;;;10.90;99.90;;;;;;5100274;28;20043;-37
2024/01/24 08:34:39;;;;;;;28.33;6.53;;;10.90;99.90;;;;;;5101051;28;20077;-34
2024/01/24 08:37:05;;;;;;;27.95;5.90;;;10.90;99.90;;;;;;5100556;28;20856;-38
2024/01/24 08:39:34;;;;;;;32.30;6.38;;;10.90;99.90;;;;;;5100812;28;20047;-35
2024/01/24 08:42:00;;;;;;;21.38;5.22;;;10.90;99.90;;;;;;5100614;28;20050;-36
2024/01/24 08:44:25;;;;;;;22.48;6.18;;;10.90;99.90;;;;;;5099878;28;20739;-36
2024/01/24 08:46:51;;;;;;;27.63;6.45;;;10.90;99.90;;;;;;5101267;28;20057;-36
2024/01/24 08:49:17;;;;;;;26.77;6.20;;;10.90;99.90;;;;;;5101629;28;20028;-33
2024/01/24 08:51:43;;;;;;;27.52;6.68;;;10.90;99.90;;;;;;5101195;28;20035;-34
2024/01/24 08:54:08;;;;;;;26.88;6.18;;;10.90;99.90;;;;;;5100306;28;20034;-33
2024/01/24 08:56:34;;;;;;;24.40;6.35;;;10.90;99.90;;;;;;5100662;28;20030;-33
2024/01/24 08:59:00;;;;;;;24.70;6.00;;;11.00;99.90;;;;;;5100251;28;20016;-40
2024/01/24 09:01:27;;;;;;;34.97;6.80;;;11.00;99.90;;;;;;5100939;28;20034;-33
2024/01/24 09:03:53;;;;;;;22.33;5.13;;;11.10;99.90;;;;;;5099445;28;20039;-30
2024/01/24 09:06:25;;;;;;;21.25;5.07;;;11.10;99.90;;;;;;5100889;28;20530;-34
2024/01/24 09:08:54;;;;;;;26.42;5.65;;;11.10;99.90;;;;;;5100527;28;20096;-35
2024/01/24 09:11:20;;;;;;;27.73;5.90;;;11.10;99.90;;;;;;5099275;28;20023;-36
2024/01/24 09:13:50;;;;;;;24.30;5.88;;;11.10;99.90;;;;;;5100580;28;20050;-33
2024/01/24 09:16:16;;;;;;;26.58;6.20;;;11.10;99.90;;;;;;5100203;28;20047;-37
2024/01/24 09:18:45;;;;;;;24.83;7.05;;;11.20;99.90;;;;;;5099771;28;20028;-37
2024/01/24 09:21:11;;;;;;;26.88;6.18;;;11.10;99.90;;;;;;5099324;28;20502;-36
2024/01/24 09:23:36;;;;;;;23.17;5.88;;;11.20;99.90;;;;;;5098387;28;20124;-33
2024/01/24 09:26:03;;;;;;;29.38;5.85;;;11.10;99.90;;;;;;5097468;28;20455;-37
2024/01/24 09:28:29;;;;;;;24.75;6.15;;;11.10;99.90;;;;;;5098466;28;20046;-35
2024/01/24 09:30:54;;;;;;;26.35;6.07;;;11.10;99.90;;;;;;5098595;28;20468;-34
2024/01/24 09:33:20;;;;;;;23.48;6.25;;;11.10;99.90;;;;;;5097468;28;20040;-35
2024/01/24 09:35:46;;;;;;;24.17;5.78;;;11.20;99.90;;;;;;5087357;28;20020;-38
2024/01/24 09:38:14;;;;;;;31.13;7.05;;;11.20;99.90;;;;;;5099603;28;20027;-37
2024/01/24 09:40:41;;;;;;;24.02;6.22;;;11.20;99.90;;;;;;5099726;28;20059;-38
2024/01/24 09:43:09;;;;;;;28.00;7.00;;;11.20;99.90;;;;;;5100079;28;20417;-37
2024/01/24 09:45:40;;;;;;;27.88;6.18;;;11.20;99.90;;;;;;5099093;28;20023;-35
2024/01/24 09:48:08;;;;;;;29.27;5.57;;;11.20;99.90;;;;;;5081631;28;20051;-36
2024/01/24 09:50:34;;;;;;;26.85;5.75;;;11.20;99.90;;;;;;5098722;28;20019;-41
2024/01/24 09:53:03;;;;;;;20.05;5.00;;;11.20;99.90;;;;;;5099200;28;20511;-35
2024/01/24 09:55:29;;;;;;;29.83;6.32;;;11.20;99.90;;;;;;5099901;28;20020;-37
2024/01/24 09:57:55;;;;;;;27.30;5.57;;;11.30;99.90;;;;;;5098870;28;20031;-35
2024/01/24 10:00:21;;;;;;;26.13;5.90;;;11.30;99.90;;;;;;5098518;28;20585;-38
2024/01/24 10:02:47;;;;;;;21.08;5.60;;;11.30;99.90;;;;;;5100189;28;20028;-37
2024/01/24 10:05:16;;;;;;;28.13;5.93;;;11.30;99.90;;;;;;5099323;28;20589;-36
2024/01/24 10:07:42;;;;;;;26.15;6.93;;;11.30;99.90;;;;;;5099170;28;20834;-33
2024/01/24 10:10:17;;;;;;;29.77;6.32;;;11.30;99.90;;;;;;5098864;28;20022;-36
2024/01/24 10:12:43;;;;;;;22.83;5.18;;;11.40;99.90;;;;;;5099623;28;20052;-37
2024/01/24 10:15:10;;;;;;;23.67;5.63;;;11.40;99.90;;;;;;5099014;28;20433;-32
2024/01/24 10:17:40;;;;;;;22.90;5.82;;;11.40;99.90;;;;;;5099370;28;20371;-35
2024/01/24 10:20:09;;;;;;;26.90;6.15;;;11.40;99.90;;;;;;5099390;28;20041;-41
2024/01/24 10:22:35;;;;;;;24.65;5.78;;;11.50;99.90;;;;;;5099390;28;20056;-37
2024/01/24 10:25:01;;;;;;;36.58;6.32;;;11.50;99.90;;;;;;5099770;28;20019;-37
2024/01/24 10:27:26;;;;;;;26.90;5.88;;;11.50;99.90;;;;;;5099889;28;20482;-35
2024/01/24 10:29:52;;;;;;;23.70;5.90;;;11.50;99.90;;;;;;5098407;28;20725;-36
2024/01/24 10:32:17;;;;;;;26.25;6.32;;;11.60;99.90;;;;;;5099164;28;20065;-37
2024/01/24 10:34:43;;;;;;;21.70;5.55;;;11.60;99.90;;;;;;5098809;28;20882;-37
2024/01/24 10:37:09;;;;;;;22.13;5.18;;;11.60;99.90;;;;;;5098451;28;20103;-35
2024/01/24 10:39:45;;;;;;;24.65;5.53;;;11.60;99.90;;;;;;5099574;28;20106;-35
2024/01/24 10:42:15;;;;;;;20.08;5.03;;;11.70;99.90;;;;;;5098089;28;20043;-37
2024/01/24 10:44:44;;;;;;;32.33;6.68;;;11.70;99.90;;;;;;5100218;28;20122;-35
2024/01/24 10:47:10;;;;;;;30.10;6.85;;;11.70;99.90;;;;;;5099372;28;20038;-36
2024/01/24 10:49:37;;;;;;;28.85;6.60;;;11.70;99.90;;;;;;5097909;28;20692;-37
2024/01/24 10:52:04;;;;;;;27.92;5.88;;;11.70;99.90;;;;;;5098902;28;20387;-34
2024/01/24 10:54:34;;;;;;;26.58;6.03;;;11.70;99.90;;;;;;5099889;28;20019;-34
2024/01/24 10:57:02;;;;;;;25.55;5.45;;;11.60;99.90;;;;;;5098232;28;20023;-36
2024/01/24 10:59:31;;;;;;;26.45;5.38;;;11.70;99.90;;;;;;5098576;28;20054;-36
2024/01/24 11:01:57;;;;;;;27.73;6.38;;;11.60;99.90;;;;;;5098312;28;20122;-38
2024/01/24 11:04:24;;;;;;;29.02;6.25;;;11.70;99.90;;;;;;5097884;28;20042;-38
2024/01/24 11:07:04;;;;;;;29.33;6.05;;;11.70;99.90;;;;;;5100308;28;20033;-35
2024/01/24 11:09:42;;;;;;;24.17;5.47;;;11.70;99.90;;;;;;5102615;28;20128;-36
2024/01/24 11:12:13;;;;;;;26.27;5.82;;;11.70;99.90;;;;;;5101538;28;20046;-36
2024/01/24 11:14:46;;;;;;;27.13;6.43;;;11.70;99.90;;;;;;5102822;28;20027;-36
2024/01/24 11:17:12;;;;;;;36.08;6.28;;;11.70;99.90;;;;;;5101487;28;20020;-41
2024/01/24 11:19:38;;;;;;;28.55;6.18;;;11.70;99.90;;;;;;5102628;28;20110;-33
2024/01/24 11:22:11;;;;;;;21.70;5.30;;;11.70;99.90;;;;;;5102055;28;20107;-37
2024/01/24 11:24:40;;;;;;;27.67;5.68;;;11.70;99.90;;;;;;5101345;28;20036;-30
2024/01/24 11:27:34;;;;;;;28.13;6.55;;;11.60;99.90;;;;;;5101587;28;20027;-34
2024/01/24 11:30:13;;;;;;;29.23;6.03;;;11.70;99.90;;;;;;5094064;28;20142;-31
2024/01/24 11:32:47;;;;;;;26.95;6.30;;;11.70;99.90;;;;;;5101634;28;20070;-32
2024/01/24 11:35:40;;;;;;;30.20;6.30;;;11.70;99.90;;;;;;5101921;28;20024;-36
2024/01/24 11:38:22;;;;;;;29.83;5.95;;;11.70;99.90;;;;;;5101371;28;20078;-34
2024/01/24 11:40:50;;;;;;;29.23;6.22;;;11.70;99.90;;;;;;5100903;28;20051;-34
2024/01/24 11:43:24;;;;;;;23.67;5.70;;;11.70;99.90;;;;;;5101115;28;20051;-35
2024/01/24 11:46:01;;;;;;;25.88;6.18;;;11.70;99.90;;;;;;5101094;28;20027;-36
2024/01/24 11:48:28;;;;;;;26.83;6.38;;;11.70;99.90;;;;;;5101681;28;20028;-36
2024/01/24 11:50:57;;;;;;;18.30;5.22;;;11.80;99.90;;;;;;5102234;28;20027;-36
2024/01/24 11:53:24;;;;;;;24.88;6.13;;;11.70;99.90;;;;;;5100451;28;20026;-34
2024/01/24 11:56:01;;;;;;;24.90;5.60;;;11.70;99.90;;;;;;5102127;28;20027;-36
2024/01/24 11:58:28;;;;;;;24.08;5.68;;;11.80;99.90;;;;;;5101029;28;20706;-34
2024/01/24 12:01:08;;;;;;;25.35;5.55;;;11.80;99.90;;;;;;5101291;28;20467;-33
2024/01/24 12:03:34;;;;;;;24.17;5.50;;;11.70;99.90;;;;;;5101713;28;20047;-36
2024/01/24 12:06:00;;;;;;;21.40;4.93;;;11.70;99.90;;;;;;5101936;28;20145;-36
2024/01/24 12:08:26;;;;;;;24.40;5.10;;;11.70;99.90;;;;;;5100592;28;20024;-34
2024/01/24 12:10:51;;;;;;;21.45;5.45;;;11.80;99.90;;;;;;5101683;28;20107;-32
2024/01/24 12:13:21;;;;;;;17.67;4.50;;;11.90;99.90;;;;;;5100952;28;20053;-35
2024/01/24 12:15:47;;;;;;;22.90;5.40;;;11.90;99.90;;;;;;5101747;28;20026;-35
2024/01/24 12:18:16;;;;;;;22.52;5.00;;;12.00;99.90;;;;;;5100397;28;20029;-33
2024/01/24 12:20:47;;;;;;;20.98;4.75;;;12.00;99.90;;;;;;5099700;28;20122;-37
2024/01/24 12:23:13;;;;;;;19.92;5.00;;;12.10;99.90;;;;;;5101172;28;20044;-36
2024/01/24 12:25:39;;;;;;;21.08;4.60;;;12.10;99.90;;;;;;5101081;28;20031;-34
2024/01/24 12:28:08;;;;;;;20.70;4.75;;;12.10;99.90;;;;;;5100827;28;20028;-32
2024/01/24 12:30:35;;;;;;;21.88;5.50;;;12.10;99.90;;;;;;5100780;28;20028;-35
2024/01/24 12:33:02;;;;;;;18.73;4.80;;;12.20;99.90;;;;;;5101197;28;20028;-35
2024/01/24 12:35:29;;;;;;;20.65;4.75;;;12.10;99.90;;;;;;5099794;28;20020;-36
2024/01/24 12:38:02;;;;;;;19.05;4.82;;;12.10;99.90;;;;;;5100835;28;20032;-36